sensor_id;sensor_type;location;lat;lon;timestamp;pressure;altitude;pressure_sealevel;temperature;humidity
66385;BME280;53426;55.872;37.462;2023-06-22T00:01:29;99468.19;;;14.41;56.67
66385;BME280;53426;55.872;37.462;2023-06-22T00:03:54;99476.25;;;14.49;55.77
66385;BME280;53426;55.872;37.462;2023-06-22T00:06:20;99472.06;;;14.46;55.71
66385;BME280;53426;55.872;37.462;2023-06-22T00:08:46;99460.78;;;14.35;56.61
66385;BME280;53426;55.872;37.462;2023-06-22T00:11:12;99474.38;;;14.41;56.69
66385;BME280;53426;55.872;37.462;2023-06-22T00:13:39;99453.25;;;14.30;56.06
66385;BME280;53426;55.872;37.462;2023-06-22T00:16:04;99467.97;;;14.34;54.86
66385;BME280;53426;55.872;37.462;2023-06-22T00:18:30;99473.59;;;14.31;53.74
66385;BME280;53426;55.872;37.462;2023-06-22T00:20:58;99415.56;;;13.99;52.71
66385;BME280;53426;55.872;37.462;2023-06-22T00:23:25;99406.06;;;13.97;52.88
66385;BME280;53426;55.872;37.462;2023-06-22T00:25:51;99461.25;;;14.30;52.76
66385;BME280;53426;55.872;37.462;2023-06-22T00:28:17;99476.63;;;14.36;53.46
66385;BME280;53426;55.872;37.462;2023-06-22T00:30:44;99459.22;;;14.24;51.88
66385;BME280;53426;55.872;37.462;2023-06-22T00:33:10;99438.22;;;14.21;51.03
66385;BME280;53426;55.872;37.462;2023-06-22T00:35:36;99463.72;;;14.41;51.17
66385;BME280;53426;55.872;37.462;2023-06-22T00:38:02;99398.78;;;13.99;52.48
66385;BME280;53426;55.872;37.462;2023-06-22T00:40:32;99395.72;;;13.94;52.66
66385;BME280;53426;55.872;37.462;2023-06-22T00:42:59;99467.34;;;14.40;51.23
66385;BME280;53426;55.872;37.462;2023-06-22T00:45:26;99423.56;;;14.17;52.25
66385;BME280;53426;55.872;37.462;2023-06-22T00:47:53;99437.59;;;14.27;51.19
66385;BME280;53426;55.872;37.462;2023-06-22T00:50:24;99414.19;;;14.13;53.70
66385;BME280;53426;55.872;37.462;2023-06-22T00:52:52;99444.06;;;14.24;55.52
66385;BME280;53426;55.872;37.462;2023-06-22T00:55:20;99459.97;;;14.34;53.03
66385;BME280;53426;55.872;37.462;2023-06-22T00:57:47;99459.69;;;14.37;53.03
66385;BME280;53426;55.872;37.462;2023-06-22T01:00:15;99433.50;;;14.15;52.41
66385;BME280;53426;55.872;37.462;2023-06-22T01:02:43;99454.09;;;14.31;52.85
66385;BME280;53426;55.872;37.462;2023-06-22T01:05:15;99459.28;;;14.32;52.51
66385;BME280;53426;55.872;37.462;2023-06-22T01:08:06;99465.97;;;14.36;53.38
66385;BME280;53426;55.872;37.462;2023-06-22T01:10:41;99470.03;;;14.40;53.84
66385;BME280;53426;55.872;37.462;2023-06-22T01:16:02;99413.03;;;14.15;56.67
66385;BME280;53426;55.872;37.462;2023-06-22T01:18:31;99377.09;;;13.94;54.43
66385;BME280;53426;55.872;37.462;2023-06-22T01:21:00;99478.34;;;14.63;53.65
66385;BME280;53426;55.872;37.462;2023-06-22T01:26:38;99489.75;;;14.73;53.28
66385;BME280;53426;55.872;37.462;2023-06-22T01:29:08;99482.22;;;14.69;52.71
66385;BME280;53426;55.872;37.462;2023-06-22T01:31:39;99322.53;;;13.72;53.76
66385;BME280;53426;55.872;37.462;2023-06-22T01:34:08;99447.44;;;14.44;52.95
66385;BME280;53426;55.872;37.462;2023-06-22T01:36:36;99421.31;;;14.30;53.32
66385;BME280;53426;55.872;37.462;2023-06-22T01:41:57;99428.41;;;14.39;52.93
66385;BME280;53426;55.872;37.462;2023-06-22T01:44:25;99468.88;;;14.60;54.95
66385;BME280;53426;55.872;37.462;2023-06-22T01:46:52;99484.88;;;14.69;52.42
66385;BME280;53426;55.872;37.462;2023-06-22T01:49:18;99463.69;;;14.59;53.88
66385;BME280;53426;55.872;37.462;2023-06-22T01:51:45;99488.41;;;14.69;53.27
66385;BME280;53426;55.872;37.462;2023-06-22T01:54:39;99483.91;;;14.70;54.08
66385;BME280;53426;55.872;37.462;2023-06-22T01:57:06;99431.09;;;14.39;54.58
66385;BME280;53426;55.872;37.462;2023-06-22T01:59:57;99426.75;;;14.38;54.59
66385;BME280;53426;55.872;37.462;2023-06-22T02:02:28;99464.63;;;14.76;52.33
66385;BME280;53426;55.872;37.462;2023-06-22T02:04:59;99478.16;;;14.82;51.78
66385;BME280;53426;55.872;37.462;2023-06-22T02:07:39;99466.03;;;14.88;51.53
66385;BME280;53426;55.872;37.462;2023-06-22T02:10:07;99420.63;;;14.72;53.42
66385;BME280;53426;55.872;37.462;2023-06-22T02:12:36;99467.25;;;15.01;53.68
66385;BME280;53426;55.872;37.462;2023-06-22T02:15:03;99442.06;;;14.96;52.10
66385;BME280;53426;55.872;37.462;2023-06-22T02:17:33;99447.13;;;15.07;53.05
66385;BME280;53426;55.872;37.462;2023-06-22T02:20:02;99416.72;;;14.92;51.14
66385;BME280;53426;55.872;37.462;2023-06-22T02:22:35;99449.66;;;15.17;54.47
66385;BME280;53426;55.872;37.462;2023-06-22T02:25:02;99448.69;;;15.18;52.18
66385;BME280;53426;55.872;37.462;2023-06-22T02:27:30;99450.84;;;15.22;52.59
66385;BME280;53426;55.872;37.462;2023-06-22T02:29:57;99377.34;;;14.78;52.90
66385;BME280;53426;55.872;37.462;2023-06-22T02:32:23;99446.22;;;15.24;52.34
66385;BME280;53426;55.872;37.462;2023-06-22T02:34:49;99447.03;;;15.25;53.29
66385;BME280;53426;55.872;37.462;2023-06-22T02:37:16;99414.94;;;15.00;52.52
66385;BME280;53426;55.872;37.462;2023-06-22T02:39:42;99432.31;;;15.13;53.14
66385;BME280;53426;55.872;37.462;2023-06-22T02:42:08;99423.47;;;15.12;53.18
66385;BME280;53426;55.872;37.462;2023-06-22T02:44:37;99401.16;;;15.13;52.86
66385;BME280;53426;55.872;37.462;2023-06-22T02:47:03;99432.34;;;15.63;51.75
66385;BME280;53426;55.872;37.462;2023-06-22T02:49:29;99424.41;;;16.27;48.93
66385;BME280;53426;55.872;37.462;2023-06-22T02:51:57;99431.16;;;16.95;47.33
66385;BME280;53426;55.872;37.462;2023-06-22T02:54:23;99390.22;;;17.25;45.94
66385;BME280;53426;55.872;37.462;2023-06-22T02:56:52;99395.16;;;17.75;43.86
66385;BME280;53426;55.872;37.462;2023-06-22T02:59:19;99410.25;;;18.14;42.97
66385;BME280;53426;55.872;37.462;2023-06-22T03:01:51;99420.78;;;18.75;42.08
66385;BME280;53426;55.872;37.462;2023-06-22T03:04:26;99384.31;;;18.96;41.13
66385;BME280;53426;55.872;37.462;2023-06-22T03:06:55;99402.31;;;19.31;39.96
66385;BME280;53426;55.872;37.462;2023-06-22T03:09:22;99309.38;;;19.09;39.54
66385;BME280;53426;55.872;37.462;2023-06-22T03:11:48;99325.81;;;19.56;38.83
66385;BME280;53426;55.872;37.462;2023-06-22T03:14:14;99410.75;;;20.42;38.60
66385;BME280;53426;55.872;37.462;2023-06-22T03:17:05;99416.25;;;20.56;38.63
66385;BME280;53426;55.872;37.462;2023-06-22T03:19:31;99285.22;;;19.94;37.80
66385;BME280;53426;55.872;37.462;2023-06-22T03:21:59;99390.59;;;20.60;37.67
66385;BME280;53426;55.872;37.462;2023-06-22T03:24:25;99309.75;;;20.33;37.18
66385;BME280;53426;55.872;37.462;2023-06-22T03:30:19;99403.34;;;21.54;36.64
66385;BME280;53426;55.872;37.462;2023-06-22T03:32:45;99309.78;;;21.15;36.20
66385;BME280;53426;55.872;37.462;2023-06-22T03:35:12;99331.31;;;21.15;36.40
66385;BME280;53426;55.872;37.462;2023-06-22T03:37:40;99392.47;;;21.95;36.25
66385;BME280;53426;55.872;37.462;2023-06-22T03:40:16;99397.44;;;21.98;35.52
66385;BME280;53426;55.872;37.462;2023-06-22T03:42:42;99354.28;;;21.98;35.61
66385;BME280;53426;55.872;37.462;2023-06-22T03:45:09;99320.47;;;21.89;35.01
66385;BME280;53426;55.872;37.462;2023-06-22T03:47:35;99380.41;;;22.70;34.66
66385;BME280;53426;55.872;37.462;2023-06-22T03:50:03;99391.88;;;23.30;33.93
66385;BME280;53426;55.872;37.462;2023-06-22T03:52:33;99391.16;;;23.92;32.92
66385;BME280;53426;55.872;37.462;2023-06-22T03:55:00;99367.03;;;24.47;31.82
66385;BME280;53426;55.872;37.462;2023-06-22T03:57:25;99399.47;;;24.96;31.31
66385;BME280;53426;55.872;37.462;2023-06-22T03:59:53;99387.28;;;25.54;30.36
66385;BME280;53426;55.872;37.462;2023-06-22T04:02:20;99302.00;;;24.72;30.15
66385;BME280;53426;55.872;37.462;2023-06-22T04:05:08;99370.06;;;25.18;30.42
66385;BME280;53426;55.872;37.462;2023-06-22T04:07:34;99307.03;;;24.50;30.74
66385;BME280;53426;55.872;37.462;2023-06-22T04:10:08;99384.56;;;25.24;29.95
66385;BME280;53426;55.872;37.462;2023-06-22T04:12:34;99260.81;;;24.70;30.13
66385;BME280;53426;55.872;37.462;2023-06-22T04:15:02;99238.31;;;24.51;29.82
66385;BME280;53426;55.872;37.462;2023-06-22T04:17:31;99382.03;;;25.59;29.76
66385;BME280;53426;55.872;37.462;2023-06-22T04:19:57;99400.06;;;25.83;28.91
66385;BME280;53426;55.872;37.462;2023-06-22T04:22:23;99387.97;;;25.97;28.87
66385;BME280;53426;55.872;37.462;2023-06-22T04:24:49;99327.72;;;25.65;28.55
66385;BME280;53426;55.872;37.462;2023-06-22T04:27:17;99346.84;;;25.70;29.10
66385;BME280;53426;55.872;37.462;2023-06-22T04:29:44;99381.56;;;25.80;29.17
66385;BME280;53426;55.872;37.462;2023-06-22T04:32:17;99378.97;;;25.85;29.18
66385;BME280;53426;55.872;37.462;2023-06-22T04:34:43;99373.47;;;25.62;29.26
66385;BME280;53426;55.872;37.462;2023-06-22T04:37:12;99305.72;;;25.73;29.27
66385;BME280;53426;55.872;37.462;2023-06-22T04:39:43;99357.63;;;26.65;28.23
66385;BME280;53426;55.872;37.462;2023-06-22T04:42:09;99320.78;;;26.69;27.71
66385;BME280;53426;55.872;37.462;2023-06-22T04:44:35;99300.81;;;26.17;28.32
66385;BME280;53426;55.872;37.462;2023-06-22T04:47:01;99374.41;;;26.39;28.80
66385;BME280;53426;55.872;37.462;2023-06-22T04:49:35;99362.34;;;26.46;28.44
66385;BME280;53426;55.872;37.462;2023-06-22T04:52:06;99356.13;;;26.04;28.78
66385;BME280;53426;55.872;37.462;2023-06-22T04:54:34;99316.16;;;25.10;29.61
66385;BME280;53426;55.872;37.462;2023-06-22T04:57:06;99356.50;;;25.18;29.85
66385;BME280;53426;55.872;37.462;2023-06-22T04:59:37;99317.81;;;24.75;30.45
66385;BME280;53426;55.872;37.462;2023-06-22T05:02:08;99352.44;;;25.09;30.18
66385;BME280;53426;55.872;37.462;2023-06-22T05:04:34;99368.19;;;25.67;29.79
66385;BME280;53426;55.872;37.462;2023-06-22T05:07:06;99367.00;;;26.04;29.42
66385;BME280;53426;55.872;37.462;2023-06-22T05:09:33;99353.78;;;25.96;29.28
66385;BME280;53426;55.872;37.462;2023-06-22T05:11:59;99330.53;;;25.59;29.50
66385;BME280;53426;55.872;37.462;2023-06-22T05:14:29;99343.09;;;26.48;29.19
66385;BME280;53426;55.872;37.462;2023-06-22T05:16:55;99352.66;;;27.94;27.26
66385;BME280;53426;55.872;37.462;2023-06-22T05:22:25;99377.59;;;30.26;24.35
66385;BME280;53426;55.872;37.462;2023-06-22T05:24:52;99376.25;;;31.08;23.72
66385;BME280;53426;55.872;37.462;2023-06-22T05:27:24;99367.06;;;31.34;23.41
66385;BME280;53426;55.872;37.462;2023-06-22T05:29:51;99354.91;;;31.97;22.29
66385;BME280;53426;55.872;37.462;2023-06-22T05:35:38;99361.78;;;32.35;21.69
66385;BME280;53426;55.872;37.462;2023-06-22T05:38:05;99361.53;;;32.32;21.73
66385;BME280;53426;55.872;37.462;2023-06-22T05:40:34;99368.91;;;32.47;21.79
66385;BME280;53426;55.872;37.462;2023-06-22T05:43:00;99332.97;;;32.84;21.33
66385;BME280;53426;55.872;37.462;2023-06-22T05:45:29;99361.19;;;32.94;22.04
66385;BME280;53426;55.872;37.462;2023-06-22T05:47:55;99365.88;;;32.68;21.49
66385;BME280;53426;55.872;37.462;2023-06-22T05:50:21;99320.94;;;31.78;22.35
66385;BME280;53426;55.872;37.462;2023-06-22T05:52:47;99357.44;;;32.29;21.64
66385;BME280;53426;55.872;37.462;2023-06-22T05:55:13;99301.78;;;32.09;21.51
66385;BME280;53426;55.872;37.462;2023-06-22T05:57:41;99363.72;;;32.50;21.54
66385;BME280;53426;55.872;37.462;2023-06-22T06:00:07;99360.84;;;33.21;20.88
66385;BME280;53426;55.872;37.462;2023-06-22T06:02:36;99355.16;;;33.56;20.68
66385;BME280;53426;55.872;37.462;2023-06-22T06:05:04;99360.69;;;33.51;20.46
66385;BME280;53426;55.872;37.462;2023-06-22T06:07:37;99337.94;;;33.41;20.91
66385;BME280;53426;55.872;37.462;2023-06-22T06:10:03;99357.47;;;33.83;20.50
66385;BME280;53426;55.872;37.462;2023-06-22T06:12:32;99359.09;;;34.28;19.86
66385;BME280;53426;55.872;37.462;2023-06-22T06:14:58;99354.13;;;34.30;20.02
66385;BME280;53426;55.872;37.462;2023-06-22T06:17:24;99319.91;;;34.13;19.61
66385;BME280;53426;55.872;37.462;2023-06-22T06:19:50;99357.59;;;34.70;19.88
66385;BME280;53426;55.872;37.462;2023-06-22T06:22:16;99362.09;;;34.90;20.12
66385;BME280;53426;55.872;37.462;2023-06-22T06:24:45;99350.19;;;35.60;19.29
66385;BME280;53426;55.872;37.462;2023-06-22T06:27:11;99351.47;;;35.68;18.57
66385;BME280;53426;55.872;37.462;2023-06-22T06:29:38;99357.28;;;35.00;18.91
66385;BME280;53426;55.872;37.462;2023-06-22T06:32:05;99335.41;;;34.90;18.78
66385;BME280;53426;55.872;37.462;2023-06-22T06:34:31;99360.63;;;34.68;19.28
66385;BME280;53426;55.872;37.462;2023-06-22T06:36:58;99277.09;;;33.73;20.47
66385;BME280;53426;55.872;37.462;2023-06-22T06:39:24;99348.16;;;33.84;20.20
66385;BME280;53426;55.872;37.462;2023-06-22T06:41:52;99349.25;;;34.17;19.52
66385;BME280;53426;55.872;37.462;2023-06-22T06:44:19;99352.59;;;34.14;19.49
66385;BME280;53426;55.872;37.462;2023-06-22T06:46:45;99353.47;;;33.66;19.87
66385;BME280;53426;55.872;37.462;2023-06-22T06:49:12;99298.34;;;32.98;19.99
66385;BME280;53426;55.872;37.462;2023-06-22T06:51:39;99216.63;;;31.60;20.68
66385;BME280;53426;55.872;37.462;2023-06-22T06:54:05;99356.59;;;32.34;21.37
66385;BME280;53426;55.872;37.462;2023-06-22T06:56:31;99358.94;;;33.01;19.95
66385;BME280;53426;55.872;37.462;2023-06-22T06:59:01;99352.44;;;33.51;19.68
66385;BME280;53426;55.872;37.462;2023-06-22T07:01:27;99310.19;;;32.88;20.47
66385;BME280;53426;55.872;37.462;2023-06-22T07:03:59;99355.22;;;32.42;20.10
66385;BME280;53426;55.872;37.462;2023-06-22T07:06:26;99336.88;;;32.17;20.59
66385;BME280;53426;55.872;37.462;2023-06-22T07:08:55;99350.81;;;31.85;20.81
66385;BME280;53426;55.872;37.462;2023-06-22T07:11:21;99332.34;;;31.45;21.27
66385;BME280;53426;55.872;37.462;2023-06-22T07:13:47;99335.06;;;31.35;21.32
66385;BME280;53426;55.872;37.462;2023-06-22T07:16:13;99318.97;;;30.81;21.27
66385;BME280;53426;55.872;37.462;2023-06-22T07:18:39;99354.03;;;30.99;21.97
66385;BME280;53426;55.872;37.462;2023-06-22T07:21:06;99352.09;;;30.95;21.69
66385;BME280;53426;55.872;37.462;2023-06-22T07:23:33;99343.28;;;30.83;21.92
66385;BME280;53426;55.872;37.462;2023-06-22T07:25:59;99300.06;;;30.32;22.58
66385;BME280;53426;55.872;37.462;2023-06-22T07:28:27;99330.34;;;30.31;22.51
66385;BME280;53426;55.872;37.462;2023-06-22T07:30:57;99332.28;;;29.99;22.98
66385;BME280;53426;55.872;37.462;2023-06-22T07:33:23;99335.56;;;30.01;22.85
66385;BME280;53426;55.872;37.462;2023-06-22T07:35:49;99340.81;;;29.80;23.56
66385;BME280;53426;55.872;37.462;2023-06-22T07:38:17;99307.06;;;29.60;23.31
66385;BME280;53426;55.872;37.462;2023-06-22T07:40:43;99339.75;;;29.81;23.47
66385;BME280;53426;55.872;37.462;2023-06-22T07:43:09;99321.66;;;29.75;23.00
66385;BME280;53426;55.872;37.462;2023-06-22T07:45:37;99304.56;;;29.58;23.32
66385;BME280;53426;55.872;37.462;2023-06-22T07:48:05;99267.88;;;28.95;23.43
66385;BME280;53426;55.872;37.462;2023-06-22T07:50:30;99335.38;;;29.10;23.93
66385;BME280;53426;55.872;37.462;2023-06-22T07:52:57;99321.22;;;28.91;24.12
66385;BME280;53426;55.872;37.462;2023-06-22T07:55:22;99324.94;;;28.63;24.57
66385;BME280;53426;55.872;37.462;2023-06-22T07:57:49;99317.88;;;28.46;24.71
66385;BME280;53426;55.872;37.462;2023-06-22T08:00:17;99336.19;;;28.34;24.56
66385;BME280;53426;55.872;37.462;2023-06-22T08:02:45;99334.59;;;28.54;24.56
66385;BME280;53426;55.872;37.462;2023-06-22T08:05:12;99298.34;;;29.14;24.33
66385;BME280;53426;55.872;37.462;2023-06-22T08:07:38;99324.75;;;29.84;23.21
66385;BME280;53426;55.872;37.462;2023-06-22T08:10:05;99318.28;;;30.59;22.96
66385;BME280;53426;55.872;37.462;2023-06-22T08:12:33;99291.56;;;30.71;21.51
66385;BME280;53426;55.872;37.462;2023-06-22T08:14:58;99330.59;;;31.08;21.98
66385;BME280;53426;55.872;37.462;2023-06-22T08:17:26;99327.22;;;30.96;21.95
66385;BME280;53426;55.872;37.462;2023-06-22T08:19:52;99326.31;;;31.38;21.95
66385;BME280;53426;55.872;37.462;2023-06-22T08:22:17;99321.75;;;31.69;21.47
66385;BME280;53426;55.872;37.462;2023-06-22T08:24:44;99284.78;;;31.91;20.74
66385;BME280;53426;55.872;37.462;2023-06-22T08:27:10;99270.84;;;31.88;21.08
66385;BME280;53426;55.872;37.462;2023-06-22T08:29:40;99314.25;;;32.96;20.28
66385;BME280;53426;55.872;37.462;2023-06-22T08:32:11;99319.72;;;33.60;20.08
66385;BME280;53426;55.872;37.462;2023-06-22T08:34:37;99310.09;;;34.35;19.16
66385;BME280;53426;55.872;37.462;2023-06-22T08:37:11;99309.34;;;35.06;18.17
66385;BME280;53426;55.872;37.462;2023-06-22T08:39:37;99315.88;;;35.53;18.17
66385;BME280;53426;55.872;37.462;2023-06-22T08:42:03;99307.22;;;36.16;17.57
66385;BME280;53426;55.872;37.462;2023-06-22T08:44:28;99297.88;;;35.79;17.57
66385;BME280;53426;55.872;37.462;2023-06-22T08:46:54;99302.88;;;36.10;17.50
66385;BME280;53426;55.872;37.462;2023-06-22T08:49:20;99290.78;;;36.70;16.87
66385;BME280;53426;55.872;37.462;2023-06-22T08:51:46;99308.16;;;37.12;16.72
66385;BME280;53426;55.872;37.462;2023-06-22T08:54:14;99286.56;;;36.59;16.75
66385;BME280;53426;55.872;37.462;2023-06-22T08:56:40;99300.06;;;36.15;17.23
66385;BME280;53426;55.872;37.462;2023-06-22T08:59:09;99295.19;;;36.39;17.28
66385;BME280;53426;55.872;37.462;2023-06-22T09:01:35;99283.41;;;37.20;16.80
66385;BME280;53426;55.872;37.462;2023-06-22T09:04:01;99252.84;;;37.53;16.12
66385;BME280;53426;55.872;37.462;2023-06-22T09:06:27;99285.97;;;37.66;16.06
66385;BME280;53426;55.872;37.462;2023-06-22T09:08:53;99273.66;;;37.95;16.08
66385;BME280;53426;55.872;37.462;2023-06-22T09:11:19;99251.78;;;38.29;15.24
66385;BME280;53426;55.872;37.462;2023-06-22T09:13:44;99273.53;;;38.92;15.27
66385;BME280;53426;55.872;37.462;2023-06-22T09:16:11;99271.09;;;38.91;15.23
66385;BME280;53426;55.872;37.462;2023-06-22T09:18:37;99252.00;;;38.19;15.38
66385;BME280;53426;55.872;37.462;2023-06-22T09:21:03;99267.38;;;38.03;15.71
66385;BME280;53426;55.872;37.462;2023-06-22T09:23:29;99269.94;;;38.53;15.40
66385;BME280;53426;55.872;37.462;2023-06-22T09:25:55;99259.94;;;38.43;15.25
66385;BME280;53426;55.872;37.462;2023-06-22T09:28:25;99259.63;;;38.14;15.56
66385;BME280;53426;55.872;37.462;2023-06-22T09:30:51;99270.66;;;37.47;15.85
66385;BME280;53426;55.872;37.462;2023-06-22T09:33:18;99259.47;;;37.02;16.52
66385;BME280;53426;55.872;37.462;2023-06-22T09:35:45;99257.06;;;35.81;17.45
66385;BME280;53426;55.872;37.462;2023-06-22T09:38:23;99252.56;;;35.85;18.14
66385;BME280;53426;55.872;37.462;2023-06-22T09:40:51;99249.59;;;36.14;17.94
66385;BME280;53426;55.872;37.462;2023-06-22T09:43:23;99264.22;;;36.74;17.96
66385;BME280;53426;55.872;37.462;2023-06-22T09:45:52;99228.25;;;37.29;16.94
66385;BME280;53426;55.872;37.462;2023-06-22T09:48:18;99224.66;;;37.64;16.69
66385;BME280;53426;55.872;37.462;2023-06-22T09:50:45;99248.59;;;37.69;16.64
66385;BME280;53426;55.872;37.462;2023-06-22T09:53:11;99251.00;;;37.48;16.67
66385;BME280;53426;55.872;37.462;2023-06-22T09:55:37;99253.56;;;37.58;17.22
66385;BME280;53426;55.872;37.462;2023-06-22T09:58:02;99240.78;;;37.93;16.50
66385;BME280;53426;55.872;37.462;2023-06-22T10:00:28;99224.75;;;37.37;16.91
66385;BME280;53426;55.872;37.462;2023-06-22T10:02:54;99188.38;;;35.71;17.85
66385;BME280;53426;55.872;37.462;2023-06-22T10:05:21;99237.19;;;36.17;18.86
66385;BME280;53426;55.872;37.462;2023-06-22T10:07:47;99220.25;;;36.51;18.05
66385;BME280;53426;55.872;37.462;2023-06-22T10:10:13;99201.09;;;37.45;16.88
66385;BME280;53426;55.872;37.462;2023-06-22T10:12:47;99210.69;;;38.14;16.25
66385;BME280;53426;55.872;37.462;2023-06-22T10:15:14;99184.44;;;37.81;16.09
66385;BME280;53426;55.872;37.462;2023-06-22T10:17:40;99216.25;;;37.69;16.97
66385;BME280;53426;55.872;37.462;2023-06-22T10:20:06;99220.75;;;37.88;17.15
66385;BME280;53426;55.872;37.462;2023-06-22T10:22:41;99207.16;;;37.33;15.73
66385;BME280;53426;55.872;37.462;2023-06-22T10:25:11;99199.84;;;36.65;16.96
66385;BME280;53426;55.872;37.462;2023-06-22T10:27:43;99198.47;;;35.76;17.17
66385;BME280;53426;55.872;37.462;2023-06-22T10:30:11;99203.59;;;36.15;17.62
66385;BME280;53426;55.872;37.462;2023-06-22T10:32:38;99200.75;;;36.74;17.62
66385;BME280;53426;55.872;37.462;2023-06-22T10:35:08;99178.31;;;36.07;17.13
66385;BME280;53426;55.872;37.462;2023-06-22T10:37:46;99168.88;;;36.41;16.93
66385;BME280;53426;55.872;37.462;2023-06-22T10:40:14;99201.66;;;36.29;17.29
66385;BME280;53426;55.872;37.462;2023-06-22T10:42:40;99187.59;;;35.65;17.80
66385;BME280;53426;55.872;37.462;2023-06-22T10:51:02;99195.34;;;34.70;18.98
66385;BME280;53426;55.872;37.462;2023-06-22T10:53:32;99174.81;;;33.13;19.49
66385;BME280;53426;55.872;37.462;2023-06-22T10:55:57;99173.97;;;32.58;20.69
66385;BME280;53426;55.872;37.462;2023-06-22T10:58:23;99169.94;;;32.46;21.04
66385;BME280;53426;55.872;37.462;2023-06-22T11:00:49;99178.44;;;32.44;20.81
66385;BME280;53426;55.872;37.462;2023-06-22T11:03:15;99165.44;;;31.45;22.16
66385;BME280;53426;55.872;37.462;2023-06-22T11:05:42;99171.16;;;30.41;22.71
66385;BME280;53426;55.872;37.462;2023-06-22T11:08:08;99159.56;;;29.76;23.54
66385;BME280;53426;55.872;37.462;2023-06-22T11:10:34;99168.03;;;29.43;24.58
66385;BME280;53426;55.872;37.462;2023-06-22T11:13:00;99162.66;;;28.94;25.21
66385;BME280;53426;55.872;37.462;2023-06-22T11:15:26;99163.38;;;28.85;25.41
66385;BME280;53426;55.872;37.462;2023-06-22T11:17:52;99154.25;;;28.74;25.55
66385;BME280;53426;55.872;37.462;2023-06-22T11:20:17;99135.66;;;28.71;25.44
66385;BME280;53426;55.872;37.462;2023-06-22T11:22:43;99157.41;;;28.88;25.72
66385;BME280;53426;55.872;37.462;2023-06-22T11:25:10;99120.94;;;28.45;25.47
66385;BME280;53426;55.872;37.462;2023-06-22T11:27:38;99133.59;;;28.13;25.72
66385;BME280;53426;55.872;37.462;2023-06-22T11:30:04;99139.09;;;27.79;26.66
66385;BME280;53426;55.872;37.462;2023-06-22T11:32:31;99139.91;;;27.46;26.99
66385;BME280;53426;55.872;37.462;2023-06-22T11:34:56;99144.69;;;27.39;27.43
66385;BME280;53426;55.872;37.462;2023-06-22T11:37:23;99126.06;;;27.15;27.64
66385;BME280;53426;55.872;37.462;2023-06-22T11:39:50;99133.63;;;26.84;28.05
66385;BME280;53426;55.872;37.462;2023-06-22T11:42:20;99130.47;;;26.87;28.29
66385;BME280;53426;55.872;37.462;2023-06-22T11:44:51;99117.91;;;26.98;28.13
66385;BME280;53426;55.872;37.462;2023-06-22T11:47:17;99123.19;;;27.21;27.98
66385;BME280;53426;55.872;37.462;2023-06-22T11:49:43;99122.47;;;27.26;28.23
66385;BME280;53426;55.872;37.462;2023-06-22T11:52:11;99120.97;;;27.35;28.23
66385;BME280;53426;55.872;37.462;2023-06-22T11:54:37;99119.00;;;27.47;27.84
66385;BME280;53426;55.872;37.462;2023-06-22T11:57:04;99063.94;;;27.23;27.67
66385;BME280;53426;55.872;37.462;2023-06-22T11:59:30;99120.06;;;27.46;28.09
66385;BME280;53426;55.872;37.462;2023-06-22T12:01:57;99050.50;;;26.83;28.41
66385;BME280;53426;55.872;37.462;2023-06-22T12:04:23;99076.81;;;26.94;28.80
66385;BME280;53426;55.872;37.462;2023-06-22T12:06:49;99075.28;;;26.87;29.03
66385;BME280;53426;55.872;37.462;2023-06-22T12:09:23;99109.75;;;27.15;29.03
66385;BME280;53426;55.872;37.462;2023-06-22T12:11:49;99067.19;;;27.03;28.68
66385;BME280;53426;55.872;37.462;2023-06-22T12:14:15;99093.84;;;27.06;28.83
66385;BME280;53426;55.872;37.462;2023-06-22T12:16:44;99103.59;;;27.19;29.04
66385;BME280;53426;55.872;37.462;2023-06-22T12:19:11;99087.44;;;27.29;28.25
66385;BME280;53426;55.872;37.462;2023-06-22T12:21:37;99030.94;;;27.15;28.44
66385;BME280;53426;55.872;37.462;2023-06-22T12:24:03;99087.13;;;27.26;28.70
66385;BME280;53426;55.872;37.462;2023-06-22T12:26:29;99051.28;;;27.12;28.24
66385;BME280;53426;55.872;37.462;2023-06-22T12:28:55;99068.91;;;27.10;27.68
66385;BME280;53426;55.872;37.462;2023-06-22T12:31:21;99059.09;;;27.09;27.82
66385;BME280;53426;55.872;37.462;2023-06-22T12:33:47;99007.53;;;26.80;27.96
66385;BME280;53426;55.872;37.462;2023-06-22T12:36:13;99020.97;;;27.03;27.81
66385;BME280;53426;55.872;37.462;2023-06-22T12:38:39;99039.84;;;27.27;28.34
66385;BME280;53426;55.872;37.462;2023-06-22T12:41:08;99039.91;;;27.32;27.63
66385;BME280;53426;55.872;37.462;2023-06-22T12:44:02;99060.31;;;27.68;27.68
66385;BME280;53426;55.872;37.462;2023-06-22T12:46:28;98880.38;;;26.44;27.44
66385;BME280;53426;55.872;37.462;2023-06-22T12:48:58;99055.84;;;27.45;27.38
66385;BME280;53426;55.872;37.462;2023-06-22T12:51:26;99056.16;;;27.10;27.55
66385;BME280;53426;55.872;37.462;2023-06-22T12:53:56;99066.81;;;26.83;28.23
66385;BME280;53426;55.872;37.462;2023-06-22T12:56:22;99057.41;;;26.74;27.88
66385;BME280;53426;55.872;37.462;2023-06-22T12:58:48;99041.41;;;26.44;28.23
66385;BME280;53426;55.872;37.462;2023-06-22T13:01:14;99053.16;;;26.50;28.10
66385;BME280;53426;55.872;37.462;2023-06-22T13:03:41;99045.63;;;26.69;28.04
66385;BME280;53426;55.872;37.462;2023-06-22T13:06:09;99050.13;;;26.91;28.39
66385;BME280;53426;55.872;37.462;2023-06-22T13:08:46;99011.94;;;26.98;28.32
66385;BME280;53426;55.872;37.462;2023-06-22T13:11:12;99018.94;;;26.94;27.11
66385;BME280;53426;55.872;37.462;2023-06-22T13:13:46;99041.00;;;26.97;27.37
66385;BME280;53426;55.872;37.462;2023-06-22T13:16:13;98968.94;;;26.61;27.82
66385;BME280;53426;55.872;37.462;2023-06-22T13:18:39;99036.63;;;26.96;27.77